Time;durP1;ratioP1;P1;durP2;ratioP2;P2;SDS_P1;SDS_P2;PMS_P1;PMS_P2;Temp;Humidity;BMP_temperature;BMP_pressure;BME280_temperature;BME280_humidity;BME280_pressure;Samples;Min_cycle;Max_cycle;Signal;HPM_P1;HPM_P2
2023/03/15 05:30:29;;;;;;;;;1.75;1.75;;;;;7.58;62.41;101394.09;5078802;27;45734;-69
2023/03/15 05:32:55;;;;;;;;;3.75;1.00;;;;;7.58;62.83;101378.97;5054168;28;45308;-70
2023/03/15 05:35:22;;;;;;;;;2.00;2.00;;;;;7.58;62.79;101384.31;5054689;28;45377;-70
2023/03/15 05:37:48;;;;;;;;;2.50;2.25;;;;;7.54;62.69;101376.44;5054004;28;45485;-71
2023/03/15 05:40:14;;;;;;;;;2.25;2.25;;;;;7.56;62.31;101378.16;5054331;28;46124;-69
2023/03/15 05:42:40;;;;;;;;;2.00;2.00;;;;;7.57;62.71;101382.56;5036337;28;45398;-71
2023/03/15 05:45:06;;;;;;;;;6.50;2.00;;;;;7.54;62.50;101379.97;5054294;28;45348;-71
2023/03/15 05:47:31;;;;;;;;;2.00;2.00;;;;;7.71;62.68;101397.38;5053945;28;45423;-70
2023/03/15 05:49:57;;;;;;;;;3.50;3.00;;;;;7.67;62.66;101382.34;5054128;28;45263;-71
2023/03/15 05:52:22;;;;;;;;;2.75;2.00;;;;;7.66;62.46;101392.13;5053445;28;48075;-71
2023/03/15 05:54:48;;;;;;;;;1.50;1.50;;;;;7.68;62.47;101397.44;5054107;28;45392;-71
2023/03/15 05:57:14;;;;;;;;;5.75;3.00;;;;;7.71;62.45;101403.59;5053649;28;46755;-70
2023/03/15 05:59:39;;;;;;;;;2.00;2.00;;;;;7.69;62.45;101405.41;5053924;28;45303;-70
2023/03/15 06:02:04;;;;;;;;;1.75;1.75;;;;;7.59;62.78;101404.75;5053296;28;45373;-71
2023/03/15 06:04:30;;;;;;;;;3.00;3.00;;;;;7.52;63.05;101405.81;5053876;28;45463;-70
2023/03/15 06:06:55;;;;;;;;;3.00;1.75;;;;;7.62;63.12;101416.28;5055710;28;46113;-69
2023/03/15 06:09:20;;;;;;;;;3.00;2.00;;;;;7.64;62.46;101415.34;5053851;28;45338;-70
2023/03/15 06:11:46;;;;;;;;;5.25;2.75;;;;;7.65;62.86;101422.44;5053690;28;45509;-70
2023/03/15 06:14:11;;;;;;;;;1.00;1.00;;;;;7.55;62.90;101415.56;5053424;28;45269;-69
2023/03/15 06:16:36;;;;;;;;;2.00;2.00;;;;;7.49;63.19;101411.22;5035488;28;46958;-71
2023/03/15 06:19:02;;;;;;;;;4.25;3.25;;;;;7.55;63.15;101423.56;5053546;28;45403;-70
2023/03/15 06:21:27;;;;;;;;;2.00;2.00;;;;;7.52;62.86;101411.16;5053334;28;45644;-74
2023/03/15 06:23:53;;;;;;;;;3.25;2.00;;;;;7.49;63.31;101423.66;5056724;28;45576;-74
2023/03/15 06:26:18;;;;;;;;;2.00;2.00;;;;;7.45;63.27;101411.31;5056847;28;46276;-73
2023/03/15 06:28:44;;;;;;;;;10.00;2.00;;;;;7.48;63.29;101422.81;5057419;28;45263;-74
2023/03/15 06:31:11;;;;;;;;;5.00;5.00;;;;;7.53;62.92;101428.03;5056883;28;45633;-72
2023/03/15 06:33:37;;;;;;;;;2.00;1.00;;;;;7.55;63.15;101421.75;5038510;28;46803;-72
2023/03/15 06:36:03;;;;;;;;;2.25;2.25;;;;;7.53;63.61;101420.03;5038315;28;47937;-73
2023/03/15 06:38:30;;;;;;;;;3.00;3.00;;;;;7.51;63.53;101429.84;5038582;28;45336;-72
2023/03/15 06:40:57;;;;;;;;;2.00;2.00;;;;;7.47;63.64;101422.84;5057028;28;45392;-72
2023/03/15 06:43:23;;;;;;;;;5.50;2.50;;;;;7.46;64.07;101435.31;5056840;28;45378;-73
2023/03/15 06:45:48;;;;;;;;;5.00;2.00;;;;;7.47;63.83;101425.50;5056695;28;45588;-73
2023/03/15 06:48:14;;;;;;;;;4.75;2.50;;;;;7.60;63.46;101427.88;5056960;28;45200;-72
2023/03/15 06:50:39;;;;;;;;;2.25;2.25;;;;;7.47;63.53;101428.19;5038537;28;45460;-72
2023/03/15 06:53:05;;;;;;;;;4.50;3.75;;;;;7.44;63.84;101420.25;5056615;28;45438;-71
2023/03/15 06:55:30;;;;;;;;;5.50;3.00;;;;;7.50;63.23;101431.63;5048955;28;47568;-71
2023/03/15 06:57:55;;;;;;;;;4.75;2.75;;;;;7.61;63.47;101439.41;5060151;28;45197;-73
2023/03/15 07:00:21;;;;;;;;;5.25;2.75;;;;;7.66;63.88;101433.97;5056705;28;45272;-73
2023/03/15 07:02:47;;;;;;;;;4.75;4.75;;;;;7.63;63.54;101439.38;5055259;28;45398;-74
2023/03/15 07:05:12;;;;;;;;;3.00;3.00;;;;;7.53;63.55;101428.03;5068866;28;46248;-73
2023/03/15 07:07:39;;;;;;;;;3.00;2.00;;;;;7.55;63.28;101443.09;5056167;28;45463;-74
2023/03/15 07:10:05;;;;;;;;;3.00;3.00;;;;;7.62;63.39;101445.63;5055923;28;45468;-73
2023/03/15 07:12:30;;;;;;;;;4.25;3.00;;;;;7.68;63.49;101429.47;5056291;28;45322;-74
2023/03/15 07:14:55;;;;;;;;;3.00;2.25;;;;;7.62;62.91;101419.81;5056171;28;46132;-74
2023/03/15 07:17:21;;;;;;;;;5.00;3.00;;;;;7.55;63.45;101431.56;5056381;28;45330;-72
2023/03/15 07:19:46;;;;;;;;;4.00;3.00;;;;;7.73;63.75;101456.94;5056300;28;45302;-73
2023/03/15 07:22:12;;;;;;;;;6.75;5.00;;;;;7.80;63.58;101456.78;5055614;28;45481;-73
2023/03/15 07:24:38;;;;;;;;;5.50;3.00;;;;;7.62;63.37;101440.28;5037676;28;46979;-74
2023/03/15 07:27:03;;;;;;;;;3.00;3.00;;;;;7.67;63.92;101454.41;5056411;28;45237;-74
2023/03/15 07:29:29;;;;;;;;;3.50;3.00;;;;;7.67;63.48;101443.72;5056128;28;45617;-73
2023/03/15 07:31:55;;;;;;;;;6.00;4.25;;;;;7.89;63.26;101453.88;5056060;28;46026;-74
2023/03/15 07:34:20;;;;;;;;;5.00;2.75;;;;;7.98;63.07;101467.03;5054538;28;45889;-74
2023/03/15 07:36:46;;;;;;;;;2.25;2.25;;;;;7.95;63.62;101467.09;5055995;28;45319;-73
2023/03/15 07:39:11;;;;;;;;;3.00;3.00;;;;;8.14;63.48;101472.88;5056188;28;45292;-74
2023/03/15 07:41:37;;;;;;;;;6.75;4.25;;;;;8.26;62.84;101480.56;5055693;28;45449;-73
2023/03/15 07:44:03;;;;;;;;;3.00;3.00;;;;;8.29;62.10;101472.50;5056056;28;47120;-71
2023/03/15 07:46:29;;;;;;;;;8.75;6.00;;;;;8.41;62.35;101491.84;5056199;28;45388;-74
2023/03/15 07:48:54;;;;;;;;;5.25;3.25;;;;;8.30;61.95;101471.56;5055930;28;45300;-73
2023/03/15 07:51:19;;;;;;;;;7.50;6.00;;;;;8.47;61.96;101487.22;5055621;28;45342;-75
2023/03/15 07:53:45;;;;;;;;;4.50;4.25;;;;;8.56;61.92;101486.97;5055469;28;52462;-74
2023/03/15 07:56:10;;;;;;;;;5.00;4.25;;;;;8.51;62.06;101488.88;5055510;28;45393;-74
2023/03/15 07:58:35;;;;;;;;;2.25;2.25;;;;;8.50;61.68;101464.88;5055286;28;45516;-73
2023/03/15 08:01:00;;;;;;;;;6.00;6.00;;;;;8.58;61.67;101473.59;5055616;28;45549;-73
2023/03/15 08:03:26;;;;;;;;;9.25;5.00;;;;;8.69;61.36;101496.41;5074895;28;50669;-73
2023/03/15 08:05:52;;;;;;;;;5.50;5.50;;;;;8.69;61.20;101498.22;5067694;28;45462;-74
2023/03/15 08:08:18;;;;;;;;;4.50;4.25;;;;;8.64;61.27;101490.34;5055968;28;45323;-73
2023/03/15 08:10:44;;;;;;;;;5.25;3.25;;;;;8.77;61.50;101490.88;5055927;28;45374;-74
2023/03/15 08:13:12;;;;;;;;;6.00;6.00;;;;;8.79;61.35;101499.75;5055675;28;46501;-75
2023/03/15 08:15:39;;;;;;;;;3.25;3.25;;;;;8.71;61.04;101488.38;5055405;28;45562;-74
2023/03/15 08:18:05;;;;;;;;;3.25;3.25;;;;;8.55;61.55;101473.66;5071073;28;45335;-74
2023/03/15 08:20:32;;;;;;;;;4.00;4.00;;;;;8.71;61.10;101491.03;5075390;28;45552;-73
2023/03/15 08:22:58;;;;;;;;;3.00;3.00;;;;;8.94;61.06;101507.34;5075263;28;46240;-73
2023/03/15 08:25:24;;;;;;;;;3.75;3.75;;;;;9.03;61.06;101512.44;5075533;28;45407;-74
2023/03/15 08:27:50;;;;;;;;;6.00;4.00;;;;;9.10;60.87;101510.50;5075529;28;45373;-74
2023/03/15 08:30:17;;;;;;;;;4.75;4.00;;;;;9.14;60.46;101509.47;5075572;28;45467;-75
2023/03/15 08:32:44;;;;;;;;;7.00;3.00;;;;;9.18;60.68;101512.97;5074839;28;47849;-75
2023/03/15 08:35:12;;;;;;;;;7.50;4.00;;;;;9.08;60.59;101515.00;5075379;28;45572;-74
2023/03/15 08:37:38;;;;;;;;;5.00;4.00;;;;;9.11;60.81;101522.94;5075110;28;45453;-73
2023/03/15 08:40:08;;;;;;;;;6.25;6.00;;;;;9.19;60.54;101526.28;5075302;28;45474;-73
2023/03/15 08:42:35;;;;;;;;;4.00;4.00;;;;;9.24;60.67;101529.72;5075130;28;45382;-73
2023/03/15 08:45:01;;;;;;;;;3.00;3.00;;;;;9.07;60.30;101495.41;5074796;28;45294;-74
2023/03/15 08:47:26;;;;;;;;;4.25;4.25;;;;;9.39;60.23;101534.63;5075030;28;45405;-73
2023/03/15 08:49:52;;;;;;;;;7.00;4.00;;;;;9.47;60.25;101518.34;5075101;28;45516;-74
2023/03/15 08:52:18;;;;;;;;;5.00;5.00;;;;;9.57;60.33;101527.00;5074702;28;48584;-74
2023/03/15 08:54:44;;;;;;;;;5.00;3.00;;;;;9.63;60.22;101521.44;5068876;28;45430;-73
2023/03/15 08:57:11;;;;;;;;;4.50;4.50;;;;;9.78;60.07;101515.66;5054283;28;45335;-75
2023/03/15 08:59:37;;;;;;;;;4.25;4.25;;;;;9.91;59.87;101533.09;5036443;28;46204;-73
2023/03/15 09:02:02;;;;;;;;;4.75;3.00;;;;;9.88;59.60;101519.78;5044576;28;48141;-74
2023/03/15 09:04:28;;;;;;;;;5.00;3.00;;;;;10.06;59.31;101534.41;5074676;28;45477;-74
2023/03/15 09:06:53;;;;;;;;;5.00;3.00;;;;;10.16;59.15;101535.88;5039577;28;45487;-74
2023/03/15 09:09:18;;;;;;;;;1.75;1.75;;;;;10.21;59.34;101533.97;5054818;28;45459;-74
2023/03/15 09:11:43;;;;;;;;;5.75;3.25;;;;;10.29;58.79;101536.41;5054271;28;46451;-74
2023/03/15 09:14:09;;;;;;;;;2.00;2.00;;;;;10.36;58.67;101541.53;5036498;28;45514;-73
2023/03/15 09:16:34;;;;;;;;;3.25;3.25;;;;;10.36;58.33;101543.34;5020043;28;45631;-74
2023/03/15 09:19:00;;;;;;;;;3.00;3.00;;;;;10.42;58.10;101554.72;5054435;28;45375;-74
2023/03/15 09:21:26;;;;;;;;;4.25;4.25;;;;;10.49;58.13;101552.72;5053931;28;49902;-74
2023/03/15 09:23:52;;;;;;;;;3.00;3.00;;;;;10.50;58.27;101533.91;5054493;28;45252;-74
2023/03/15 09:26:17;;;;;;;;;2.50;2.50;;;;;10.60;58.31;101542.53;5070225;28;45188;-73
2023/03/15 09:28:42;;;;;;;;;5.00;3.00;;;;;10.69;57.35;101541.34;5074721;28;45457;-75
2023/03/15 09:31:10;;;;;;;;;4.00;2.50;;;;;10.80;57.71;101545.41;5074092;28;46165;-75
2023/03/15 09:33:35;;;;;;;;;3.00;2.00;;;;;10.85;57.41;101540.78;5073673;28;45428;-73
2023/03/15 09:36:02;;;;;;;;;2.00;2.00;;;;;10.87;57.00;101540.72;5073484;28;45456;-75
2023/03/15 09:38:28;;;;;;;;;2.00;2.00;;;;;10.89;57.12;101547.75;5074081;28;45653;-75
2023/03/15 09:40:58;;;;;;;;;1.75;1.25;;;;;10.94;57.48;101540.44;5073819;28;45457;-75
2023/03/15 09:43:56;;;;;;;;;2.75;2.75;;;;;11.09;56.68;101548.88;5073574;28;45316;-74
2023/03/15 09:46:31;;;;;;;;;1.25;1.25;;;;;11.24;56.55;101548.34;5074403;28;45453;-74
2023/03/15 09:49:16;;;;;;;;;1.00;1.00;;;;;11.26;56.31;101547.34;5074425;28;45366;-74
2023/03/15 09:51:50;;;;;;;;;4.50;1.25;;;;;11.31;55.20;101547.22;5074223;28;46252;-73
2023/03/15 09:54:22;;;;;;;;;2.00;2.00;;;;;11.23;55.42;101549.25;5053880;28;45379;-74
2023/03/15 09:56:55;;;;;;;;;1.50;1.00;;;;;11.31;56.11;101540.00;5054431;28;45512;-74
2023/03/15 09:59:31;;;;;;;;;2.00;2.00;;;;;11.38;55.38;101538.00;5057815;28;45357;-74
2023/03/15 10:02:00;;;;;;;;;1.00;1.00;;;;;11.43;55.57;101535.13;5057424;28;45402;-75
2023/03/15 10:04:36;;;;;;;;;0.00;0.00;;;;;11.38;54.91;101525.44;5067285;28;45454;-73
2023/03/15 10:07:03;;;;;;;;;1.00;1.00;;;;;11.57;55.72;101541.72;5059699;28;45390;-74
2023/03/15 10:09:34;;;;;;;;;1.00;1.00;;;;;11.55;54.53;101535.56;5057256;28;45583;-73
2023/03/15 10:12:09;;;;;;;;;0.00;0.00;;;;;11.65;54.88;101546.84;5057263;28;45371;-73
2023/03/15 10:14:53;;;;;;;;;1.00;1.00;;;;;11.74;53.80;101541.09;5057397;28;45287;-74
2023/03/15 10:17:34;;;;;;;;;2.25;2.00;;;;;11.91;54.46;101540.53;5048423;28;45292;-74
2023/03/15 10:20:08;;;;;;;;;0.50;0.50;;;;;12.04;54.19;101539.09;5077127;28;45298;-74
2023/03/15 10:22:43;;;;;;;;;1.00;1.00;;;;;12.06;52.94;101539.91;5077084;28;46067;-75
2023/03/15 10:25:30;;;;;;;;;2.00;2.00;;;;;11.94;53.88;101538.56;5077489;28;45407;-76
2023/03/15 10:28:04;;;;;;;;;1.50;1.50;;;;;12.01;53.34;101545.44;5077477;28;45482;-76
2023/03/15 10:30:32;;;;;;;;;1.00;1.00;;;;;11.95;52.95;101513.44;5077604;28;45449;-74
2023/03/15 10:32:59;;;;;;;;;1.00;1.00;;;;;12.12;52.97;101535.16;5056955;28;45428;-74
2023/03/15 10:35:25;;;;;;;;;1.00;1.00;;;;;12.14;52.74;101532.41;5056685;28;45348;-73
2023/03/15 10:37:50;;;;;;;;;2.50;1.00;;;;;12.25;53.20;101529.31;5056956;28;45284;-74
2023/03/15 10:40:41;;;;;;;;;1.00;1.00;;;;;12.40;52.33;101528.69;5056851;28;45194;-73
2023/03/15 10:43:22;;;;;;;;;1.75;1.75;;;;;12.42;51.79;101526.78;5057210;28;46147;-74
2023/03/15 10:46:06;;;;;;;;;5.00;2.00;;;;;12.40;50.74;101529.56;5057080;28;45397;-73
2023/03/15 10:48:50;;;;;;;;;1.00;1.00;;;;;12.39;50.64;101524.25;5057214;28;45359;-74
2023/03/15 10:51:37;;;;;;;;;1.75;1.75;;;;;12.47;51.28;101519.41;5057059;28;45533;-73
2023/03/15 10:54:14;;;;;;;;;1.25;0.25;;;;;12.52;49.78;101526.34;5056241;28;46090;-76
2023/03/15 10:56:49;;;;;;;;;2.00;1.25;;;;;12.60;50.71;101517.06;5036898;28;45402;-75
2023/03/15 10:59:27;;;;;;;;;2.00;1.00;;;;;12.65;50.29;101501.63;5037054;28;45426;-74
2023/03/15 11:02:13;;;;;;;;;1.00;1.00;;;;;12.76;50.10;101513.66;5043646;28;45229;-75
2023/03/15 11:04:47;;;;;;;;;0.00;0.00;;;;;12.82;50.17;101510.75;5056715;28;46062;-74
2023/03/15 11:07:12;;;;;;;;;0.25;0.25;;;;;12.91;50.09;101505.91;5037186;28;45275;-74
2023/03/15 11:09:43;;;;;;;;;2.50;1.50;;;;;12.98;49.42;101507.38;5036654;28;45371;-74
2023/03/15 11:12:15;;;;;;;;;1.00;1.00;;;;;13.08;49.69;101509.59;5036460;28;45473;-73
2023/03/15 11:14:46;;;;;;;;;1.75;1.00;;;;;13.29;49.85;101515.88;5036315;28;45318;-74
2023/03/15 11:17:18;;;;;;;;;2.00;2.00;;;;;13.35;48.51;101510.25;5044443;28;45374;-73
2023/03/15 11:19:54;;;;;;;;;1.75;1.00;;;;;13.36;47.78;101505.69;5056264;28;45361;-73
2023/03/15 11:22:20;;;;;;;;;4.00;3.00;;;;;13.43;47.52;101515.28;5056333;28;45590;-74
2023/03/15 11:24:46;;;;;;;;;5.00;1.00;;;;;13.49;45.83;101506.91;5056026;28;45347;-73
2023/03/15 11:27:14;;;;;;;;;2.00;0.00;;;;;13.60;45.52;101505.47;5056391;28;45458;-76
2023/03/15 11:29:47;;;;;;;;;1.00;1.00;;;;;13.50;44.58;101508.66;5056264;28;45454;-75
2023/03/15 11:32:16;;;;;;;;;0.25;0.25;;;;;13.20;44.57;101511.78;5070139;28;45564;-74
2023/03/15 11:35:09;;;;;;;;;1.00;1.00;;;;;13.10;45.29;101505.00;5075901;28;46533;-77
2023/03/15 11:37:46;;;;;;;;;2.25;1.00;;;;;13.12;46.04;101508.50;5076293;28;45395;-75
2023/03/15 11:40:20;;;;;;;;;1.25;0.75;;;;;13.07;45.42;101504.28;5076460;28;45436;-72
2023/03/15 11:43:07;;;;;;;;;0.00;0.00;;;;;12.82;45.30;101518.81;5075842;28;45557;-75
2023/03/15 11:45:43;;;;;;;;;0.75;0.75;;;;;12.83;46.70;101517.00;5057047;28;46743;-73
2023/03/15 11:48:24;;;;;;;;;0.00;0.00;;;;;12.70;45.08;101523.81;5065592;28;45396;-77
2023/03/15 11:50:56;;;;;;;;;0.50;0.00;;;;;12.74;45.34;101517.38;5073977;28;45531;-74
2023/03/15 11:53:29;;;;;;;;;1.00;1.00;;;;;12.66;44.94;101517.72;5076283;28;45622;-73
2023/03/15 11:55:54;;;;;;;;;1.00;1.00;;;;;12.72;45.97;101530.03;5059873;28;45489;-75
2023/03/15 11:58:35;;;;;;;;;2.50;1.50;;;;;12.74;45.16;101512.88;5055682;28;45559;-73
2023/03/15 12:01:05;;;;;;;;;4.00;1.00;;;;;12.92;44.85;101515.72;5064172;28;45360;-73
2023/03/15 12:03:40;;;;;;;;;2.25;2.25;;;;;12.92;43.84;101502.28;5057852;28;45539;-73
2023/03/15 12:06:32;;;;;;;;;1.00;0.00;;;;;12.96;43.81;101506.56;5065004;28;46120;-73
2023/03/15 12:08:58;;;;;;;;;1.00;1.00;;;;;12.87;42.89;101513.22;5027483;28;45442;-73
2023/03/15 12:11:23;;;;;;;;;2.50;2.50;;;;;12.82;41.67;101508.06;5055756;28;45394;-74
2023/03/15 12:13:57;;;;;;;;;1.00;1.00;;;;;12.82;41.89;101510.75;5055254;28;45362;-73
2023/03/15 12:16:44;;;;;;;;;1.00;1.00;;;;;12.79;41.26;101493.84;5055090;28;46133;-74
2023/03/15 12:19:15;;;;;;;;;2.75;2.00;;;;;12.93;40.52;101518.31;5055213;28;45302;-74
2023/03/15 12:21:45;;;;;;;;;1.00;1.00;;;;;12.92;40.61;101513.91;5054300;28;45338;-74
2023/03/15 12:24:21;;;;;;;;;1.50;1.50;;;;;12.86;41.79;101511.47;5055248;28;45387;-72
2023/03/15 12:27:00;;;;;;;;;1.00;1.00;;;;;12.83;41.48;101501.72;5054830;28;46493;-73
2023/03/15 12:29:31;;;;;;;;;1.00;1.00;;;;;12.88;41.45;101506.91;5056102;28;45616;-74
2023/03/15 12:31:58;;;;;;;;;1.00;1.00;;;;;12.87;40.05;101505.16;5060888;28;45371;-73
2023/03/15 12:34:36;;;;;;;;;0.00;0.00;;;;;12.78;40.18;101502.84;5054735;28;45422;-73
2023/03/15 12:37:27;;;;;;;;;0.75;0.75;;;;;12.74;40.66;101494.06;5054982;28;46665;-72
2023/03/15 12:40:00;;;;;;;;;2.00;1.00;;;;;12.86;40.56;101487.25;5043654;28;45260;-74
2023/03/15 12:42:30;;;;;;;;;0.00;0.00;;;;;12.81;40.13;101498.22;5054786;28;45374;-74
2023/03/15 12:45:15;;;;;;;;;0.75;0.75;;;;;12.76;40.34;101483.22;5054831;28;45410;-73
2023/03/15 12:48:11;;;;;;;;;1.50;1.50;;;;;13.02;40.85;101480.25;5053524;28;46065;-73
2023/03/15 12:50:43;;;;;;;;;1.75;1.75;;;;;13.82;39.90;101462.22;5053833;28;45386;-71
2023/03/15 12:53:27;;;;;;;;;2.25;0.75;;;;;15.36;36.95;101471.41;5054780;28;45549;-73
2023/03/15 12:55:53;;;;;;;;;0.00;0.00;;;;;16.56;33.27;101420.38;5063408;28;46017;-74
2023/03/15 12:58:25;;;;;;;;;2.00;1.00;;;;;17.20;31.50;101455.25;5056231;28;45372;-74
2023/03/15 13:00:53;;;;;;;;;1.00;1.00;;;;;17.19;32.63;101444.50;5054720;28;46081;-73
2023/03/15 13:03:21;;;;;;;;;1.00;1.00;;;;;17.06;32.55;101440.84;5073061;28;45353;-74
2023/03/15 13:06:05;;;;;;;;;1.00;1.00;;;;;17.57;32.20;101470.09;5067039;28;45382;-74
2023/03/15 13:08:38;;;;;;;;;2.50;0.75;;;;;17.93;31.26;101458.78;5054221;28;46069;-73
2023/03/15 13:11:24;;;;;;;;;0.00;0.00;;;;;18.74;31.56;101469.66;5054665;28;45345;-72
2023/03/15 13:14:23;;;;;;;;;0.00;0.00;;;;;18.73;29.50;101449.75;5062071;28;45300;-73
2023/03/15 13:17:05;;;;;;;;;0.00;0.00;;;;;19.11;30.48;101433.53;5074489;28;45390;-73
2023/03/15 13:19:40;;;;;;;;;1.25;0.00;;;;;19.77;28.51;101451.44;5074403;28;46001;-72
2023/03/15 13:22:47;;;;;;;;;0.50;0.00;;;;;20.15;28.91;101450.47;5074431;28;45338;-74
2023/03/15 13:25:22;;;;;;;;;2.00;0.00;;;;;19.86;28.36;101442.59;4995475;28;45306;-73
2023/03/15 13:28:26;;;;;;;;;1.25;1.00;;;;;19.88;28.05;101445.22;5070461;28;45396;-73
2023/03/15 13:30:54;;;;;;;;;2.00;0.00;;;;;19.69;29.14;101434.81;4974886;28;48631;-74
2023/03/15 13:33:25;;;;;;;;;0.00;0.00;;;;;19.43;30.08;101435.78;4991311;28;45543;-73
2023/03/15 13:35:59;;;;;;;;;0.00;0.00;;;;;19.04;30.03;101437.66;5034238;28;45307;-73
2023/03/15 13:38:40;;;;;;;;;1.00;0.00;;;;;18.59;30.70;101435.38;5074663;28;45441;-72
2023/03/15 13:41:32;;;;;;;;;1.25;0.50;;;;;18.42;30.36;101440.09;5074128;28;45307;-72
2023/03/15 13:44:04;;;;;;;;;0.00;0.00;;;;;18.10;30.61;101428.69;5074187;28;45483;-72
2023/03/15 13:46:30;;;;;;;;;0.75;0.50;;;;;17.67;30.22;101437.88;5074663;28;45298;-72
2023/03/15 13:48:55;;;;;;;;;1.75;1.00;;;;;17.21;30.81;101437.16;5073951;28;45679;-72
2023/03/15 13:51:31;;;;;;;;;1.00;1.00;;;;;16.96;32.58;101435.13;5074002;28;45496;-75
2023/03/15 13:54:24;;;;;;;;;1.75;0.00;;;;;16.91;32.04;101429.13;5074819;28;45349;-71
2023/03/15 13:56:58;;;;;;;;;0.00;0.00;;;;;16.75;33.11;101431.91;5048044;28;45567;-72
2023/03/15 13:59:31;;;;;;;;;0.00;0.00;;;;;16.77;32.63;101424.53;5053960;28;46075;-76
2023/03/15 14:01:57;;;;;;;;;0.00;0.00;;;;;16.42;33.15;101432.03;5054162;28;45469;-70
2023/03/15 14:04:25;;;;;;;;;2.00;0.00;;;;;15.99;33.25;101430.09;5063239;28;45298;-74
2023/03/15 14:07:06;;;;;;;;;1.00;0.00;;;;;15.56;34.40;101400.09;5057537;28;45263;-73
2023/03/15 14:09:32;;;;;;;;;0.00;0.00;;;;;15.61;34.64;101437.66;5053789;28;45428;-74
2023/03/15 14:12:06;;;;;;;;;1.50;0.75;;;;;15.35;34.35;101434.53;5053535;28;46033;-73
2023/03/15 14:14:35;;;;;;;;;1.00;1.00;;;;;15.07;35.49;101428.88;5053936;28;45502;-72
2023/03/15 14:17:07;;;;;;;;;0.00;0.00;;;;;15.06;35.17;101430.69;5053468;28;45225;-72
2023/03/15 14:19:34;;;;;;;;;2.75;0.00;;;;;14.99;35.86;101428.41;5035619;28;45566;-72
2023/03/15 14:22:02;;;;;;;;;0.75;0.75;;;;;14.91;35.61;101417.16;5053654;28;45360;-73
2023/03/15 14:24:34;;;;;;;;;2.25;0.75;;;;;14.91;35.79;101411.75;5053677;28;45383;-72
2023/03/15 14:27:04;;;;;;;;;2.00;0.00;;;;;15.00;35.81;101422.94;5053996;28;45328;-72
2023/03/15 14:29:36;;;;;;;;;0.00;0.00;;;;;14.84;35.47;101418.44;5053212;28;46248;-72
2023/03/15 14:32:07;;;;;;;;;0.00;0.00;;;;;14.59;35.75;101421.53;5053521;28;45426;-74
2023/03/15 14:34:46;;;;;;;;;0.00;0.00;;;;;14.49;36.03;101421.13;5035371;28;45457;-73
2023/03/15 14:37:34;;;;;;;;;0.50;0.00;;;;;14.32;36.34;101421.97;5053019;28;45491;-72
2023/03/15 14:40:21;;;;;;;;;0.00;0.00;;;;;14.23;37.12;101426.94;5042210;28;45527;-73
2023/03/15 14:42:48;;;;;;;;;0.75;0.75;;;;;14.21;36.66;101427.00;5052168;28;45497;-73
2023/03/15 14:45:15;;;;;;;;;1.00;0.00;;;;;14.06;36.80;101425.09;5056103;28;45394;-73
2023/03/15 14:47:45;;;;;;;;;0.00;0.00;;;;;14.00;37.60;101426.28;5056746;28;45244;-72
2023/03/15 14:50:17;;;;;;;;;0.00;0.00;;;;;13.86;37.86;101431.47;5056501;28;45402;-72
2023/03/15 14:52:43;;;;;;;;;1.25;0.25;;;;;13.92;37.64;101441.09;5066672;28;46098;-73
2023/03/15 14:55:15;;;;;;;;;0.00;0.00;;;;;13.86;37.77;101433.31;5067166;28;45366;-73
2023/03/15 14:57:41;;;;;;;;;0.00;0.00;;;;;13.87;37.62;101437.72;5058477;28;45605;-73
2023/03/15 15:00:11;;;;;;;;;0.25;0.25;;;;;13.87;37.62;101430.50;5067297;28;45434;-71
2023/03/15 15:02:38;;;;;;;;;2.50;0.75;;;;;13.89;37.41;101427.75;5046494;28;45676;-74
2023/03/15 15:05:20;;;;;;;;;1.25;1.00;;;;;13.84;37.75;101432.50;5069717;28;45478;-74
2023/03/15 15:07:46;;;;;;;;;0.00;0.00;;;;;13.88;38.27;101429.56;5038299;28;45333;-72
2023/03/15 15:10:12;;;;;;;;;1.00;0.00;;;;;13.85;38.28;101410.88;5056398;28;45458;-72
2023/03/15 15:12:37;;;;;;;;;0.75;0.75;;;;;13.74;38.44;101412.31;5056288;28;45426;-73
2023/03/15 15:15:14;;;;;;;;;1.75;0.00;;;;;13.71;38.79;101413.34;5073807;28;45258;-73
2023/03/15 15:17:40;;;;;;;;;0.00;0.00;;;;;13.59;38.70;101395.06;5058832;28;45328;-72
2023/03/15 15:20:06;;;;;;;;;1.00;0.00;;;;;13.71;38.83;101409.75;5076193;28;45348;-72
2023/03/15 15:22:32;;;;;;;;;1.50;1.00;;;;;13.64;38.36;101401.09;5076921;28;45449;-73
2023/03/15 15:24:57;;;;;;;;;0.75;0.75;;;;;13.55;38.77;101401.53;5057012;28;45603;-72
2023/03/15 15:27:22;;;;;;;;;0.00;0.00;;;;;13.41;38.83;101391.44;5059909;28;45379;-75
2023/03/15 15:29:48;;;;;;;;;1.00;0.00;;;;;13.46;39.13;101389.38;5055559;28;45481;-74
2023/03/15 15:32:13;;;;;;;;;0.00;0.00;;;;;13.50;38.94;101392.81;5055739;28;45580;-72
2023/03/15 15:34:41;;;;;;;;;0.25;0.25;;;;;13.58;38.81;101390.63;5037542;28;45423;-72
2023/03/15 15:37:10;;;;;;;;;3.00;1.00;;;;;13.51;38.49;101356.84;5056010;28;45387;-70
2023/03/15 15:39:35;;;;;;;;;0.00;0.00;;;;;13.73;38.66;101400.66;5037602;28;46580;-73
2023/03/15 15:42:01;;;;;;;;;0.00;0.00;;;;;13.72;38.20;101389.94;5037783;28;46087;-71
2023/03/15 15:44:26;;;;;;;;;0.00;0.00;;;;;13.72;38.35;101382.75;5054866;28;45268;-71
2023/03/15 15:46:52;;;;;;;;;0.00;0.00;;;;;13.90;37.96;101389.94;5060446;28;45257;-71
2023/03/15 15:49:18;;;;;;;;;0.50;0.00;;;;;13.89;38.18;101379.22;5075337;28;45708;-73
2023/03/15 15:51:45;;;;;;;;;3.25;1.00;;;;;14.00;37.81;101382.25;5075498;28;47104;-70
2023/03/15 15:54:21;;;;;;;;;0.00;0.00;;;;;13.99;37.54;101367.91;5075656;28;45386;-72
2023/03/15 15:56:49;;;;;;;;;0.00;0.00;;;;;13.92;38.03;101381.78;5073175;28;45486;-72
2023/03/15 15:59:16;;;;;;;;;0.00;0.00;;;;;13.90;38.03;101379.16;5055653;28;45324;-73
2023/03/15 16:01:43;;;;;;;;;1.00;1.00;;;;;13.90;37.91;101365.66;5055430;28;45533;-70
2023/03/15 16:04:08;;;;;;;;;0.00;0.00;;;;;13.92;37.12;101384.47;5062775;28;45346;-71
2023/03/15 16:06:35;;;;;;;;;0.00;0.00;;;;;13.69;37.34;101368.56;5075460;28;45389;-70
2023/03/15 16:09:01;;;;;;;;;1.00;0.00;;;;;13.78;37.71;101389.69;5075513;28;45687;-71
2023/03/15 16:11:28;;;;;;;;;0.75;0.75;;;;;13.74;37.80;101388.94;5075388;28;46026;-70
2023/03/15 16:13:53;;;;;;;;;1.00;1.00;;;;;13.67;37.58;101394.72;5075678;28;45516;-71
2023/03/15 16:16:19;;;;;;;;;3.00;0.50;;;;;13.58;37.67;101386.13;5075585;28;45264;-71
2023/03/15 16:18:45;;;;;;;;;0.50;0.00;;;;;13.66;37.99;101388.44;5075568;28;45643;-71
2023/03/15 16:21:27;;;;;;;;;0.50;0.50;;;;;13.73;37.79;101399.78;5072229;28;45366;-71
2023/03/15 16:24:18;;;;;;;;;0.00;0.00;;;;;13.67;37.65;101395.59;5055598;28;45344;-70
2023/03/15 16:26:45;;;;;;;;;0.00;0.00;;;;;13.58;37.81;101391.50;5045803;28;45597;-70
2023/03/15 16:29:19;;;;;;;;;0.00;0.00;;;;;13.57;38.10;101395.16;5055191;28;45418;-71
2023/03/15 16:31:46;;;;;;;;;0.00;0.00;;;;;13.63;38.19;101402.94;5055061;28;45466;-72
2023/03/15 16:34:13;;;;;;;;;1.25;1.25;;;;;13.60;37.90;101394.13;5062084;28;45332;-72
2023/03/15 16:36:44;;;;;;;;;0.75;0.75;;;;;13.45;38.34;101381.38;5063334;28;45481;-74
2023/03/15 16:39:11;;;;;;;;;0.00;0.00;;;;;13.61;38.56;101393.16;5064845;28;45464;-68
2023/03/15 16:41:37;;;;;;;;;1.50;1.00;;;;;13.64;38.57;101398.41;5063074;28;45453;-73
2023/03/15 16:44:10;;;;;;;;;1.25;1.25;;;;;13.58;38.89;101382.56;5052107;28;45573;-70
2023/03/15 16:46:35;;;;;;;;;0.00;0.00;;;;;13.60;38.78;101386.94;5075901;28;45364;-72
2023/03/15 16:49:00;;;;;;;;;2.75;1.25;;;;;13.61;38.99;101390.47;5072330;28;45509;-71
2023/03/15 16:51:26;;;;;;;;;1.50;1.00;;;;;13.67;39.28;101382.09;5054515;28;46445;-69
2023/03/15 16:53:51;;;;;;;;;1.75;1.00;;;;;13.73;38.68;101380.94;5054643;28;45336;-72
2023/03/15 16:56:17;;;;;;;;;2.00;0.50;;;;;13.74;38.24;101380.84;5054714;28;45344;-72
2023/03/15 16:58:43;;;;;;;;;2.00;2.00;;;;;13.68;38.24;101380.28;5052828;28;46295;-73
2023/03/15 17:01:09;;;;;;;;;1.25;0.50;;;;;13.65;37.44;101381.31;5074774;28;46495;-73
2023/03/15 17:03:35;;;;;;;;;0.75;0.75;;;;;13.62;37.88;101374.22;5061463;28;45233;-72
2023/03/15 17:06:00;;;;;;;;;0.25;0.25;;;;;13.68;37.91;101381.16;5065212;28;45581;-73
2023/03/15 17:08:26;;;;;;;;;4.75;1.00;;;;;13.66;38.00;101369.59;5054471;28;45252;-72
2023/03/15 17:10:52;;;;;;;;;0.75;0.75;;;;;13.69;38.41;101373.97;5054656;28;45539;-72